Time;durP1;ratioP1;P1;durP2;ratioP2;P2;SDS_P1;SDS_P2;PMS_P1;PMS_P2;Temp;Humidity;BMP_temperature;BMP_pressure;BME280_temperature;BME280_humidity;BME280_pressure;Samples;Min_cycle;Max_cycle;Signal;HPM_P1;HPM_P2
2022/04/10 00:00:05;;;;;;;10.57;0.80;;;3.00;99.90;;;;;;5035611;28;20036;-81
2022/04/10 00:02:40;;;;;;;8.53;1.50;;;3.00;99.90;;;;;;5063948;28;20039;-81
2022/04/10 00:05:07;;;;;;;10.33;1.23;;;3.10;99.90;;;;;;5084011;28;20027;-81
2022/04/10 00:07:33;;;;;;;7.80;1.63;;;3.10;99.90;;;;;;5049603;28;20028;-81
2022/04/10 00:10:00;;;;;;;5.07;0.80;;;3.00;99.90;;;;;;5044666;28;20043;-81
2022/04/10 00:12:26;;;;;;;6.30;1.00;;;3.00;99.90;;;;;;5062266;28;20047;-80
2022/04/10 00:14:53;;;;;;;5.33;0.80;;;3.00;99.90;;;;;;5065016;28;20043;-80
2022/04/10 00:17:19;;;;;;;8.40;0.97;;;3.00;99.90;;;;;;5065024;28;20375;-80
2022/04/10 00:19:46;;;;;;;10.00;1.13;;;2.90;99.90;;;;;;5048629;28;20032;-80
2022/04/10 00:22:13;;;;;;;6.63;1.27;;;2.90;99.90;;;;;;5046502;28;20048;-80
2022/04/10 00:24:39;;;;;;;8.73;0.97;;;2.90;99.90;;;;;;5046735;28;20470;-80
2022/04/10 00:27:06;;;;;;;12.77;1.60;;;2.90;99.90;;;;;;5033708;28;20048;-81
2022/04/10 00:29:33;;;;;;;5.67;0.90;;;2.90;99.90;;;;;;5016518;28;20028;-81
2022/04/10 00:31:59;;;;;;;11.80;1.43;;;2.80;99.90;;;;;;5015530;28;20044;-80
2022/04/10 00:34:26;;;;;;;8.47;1.10;;;2.80;99.90;;;;;;5028045;28;20032;-81
2022/04/10 00:36:52;;;;;;;7.17;1.40;;;2.80;99.90;;;;;;5027547;28;20046;-81
2022/04/10 00:39:18;;;;;;;6.23;1.10;;;2.80;99.90;;;;;;5033185;28;20383;-80
2022/04/10 00:41:46;;;;;;;7.77;0.77;;;2.80;99.90;;;;;;5061309;28;20051;-80
2022/04/10 00:44:12;;;;;;;3.63;0.83;;;2.80;99.90;;;;;;5027754;28;20074;-80
2022/04/10 00:46:40;;;;;;;7.07;0.90;;;2.80;99.90;;;;;;5031310;28;20467;-80
2022/04/10 00:49:07;;;;;;;6.67;1.00;;;2.80;99.90;;;;;;5051747;28;20042;-80
2022/04/10 00:51:40;;;;;;;6.83;0.80;;;2.70;99.90;;;;;;5062108;28;20024;-80
2022/04/10 00:54:19;;;;;;;3.67;0.70;;;2.70;99.90;;;;;;5040954;28;20852;-80
2022/04/10 00:56:47;;;;;;;7.43;0.95;;;2.70;99.90;;;;;;5044020;28;20045;-80
2022/04/10 00:59:14;;;;;;;6.37;0.70;;;2.70;99.90;;;;;;5048166;28;20035;-80
2022/04/10 01:01:47;;;;;;;5.87;0.80;;;2.60;99.90;;;;;;5063629;28;20020;-76
2022/04/10 01:04:14;;;;;;;8.60;0.90;;;2.60;99.90;;;;;;5028592;28;20035;-76
2022/04/10 01:06:42;;;;;;;5.73;0.73;;;2.60;99.90;;;;;;5060889;28;20028;-76
2022/04/10 01:09:09;;;;;;;5.27;0.80;;;2.60;99.90;;;;;;5044489;28;20028;-76
2022/04/10 01:11:36;;;;;;;6.93;0.70;;;2.60;99.90;;;;;;5044341;28;20020;-76
2022/04/10 01:14:08;;;;;;;6.23;0.90;;;2.60;99.90;;;;;;5040281;28;20032;-76
2022/04/10 01:16:37;;;;;;;3.37;0.50;;;2.60;99.90;;;;;;5029373;28;20039;-76
2022/04/10 01:19:05;;;;;;;7.23;0.80;;;2.60;99.90;;;;;;5029381;28;20478;-76
2022/04/10 01:21:38;;;;;;;3.93;0.70;;;2.60;99.90;;;;;;5032504;28;20384;-80
2022/04/10 01:24:06;;;;;;;4.30;0.77;;;2.70;99.90;;;;;;5044512;28;20391;-80
2022/04/10 01:26:34;;;;;;;6.57;0.60;;;2.70;99.90;;;;;;5031269;28;20479;-81
2022/04/10 01:29:18;;;;;;;4.37;0.70;;;2.70;99.90;;;;;;5043011;28;20023;-76
2022/04/10 01:31:46;;;;;;;3.43;0.50;;;2.70;99.90;;;;;;5026889;28;20031;-76
2022/04/10 01:34:15;;;;;;;7.60;0.90;;;2.70;99.90;;;;;;5028401;28;20032;-76
2022/04/10 01:36:43;;;;;;;3.97;0.70;;;2.60;99.90;;;;;;5029434;28;20497;-80
2022/04/10 01:39:12;;;;;;;3.23;0.60;;;2.50;99.90;;;;;;5042283;28;20048;-76
2022/04/10 01:41:39;;;;;;;8.13;0.77;;;2.50;99.90;;;;;;5059715;28;20495;-76
2022/04/10 01:44:07;;;;;;;5.77;0.80;;;2.50;99.90;;;;;;5042866;28;20021;-76
2022/04/10 01:46:52;;;;;;;5.63;0.40;;;2.50;99.90;;;;;;5051654;28;20036;-76
2022/04/10 01:49:19;;;;;;;3.00;0.40;;;2.40;99.90;;;;;;5028185;28;20506;-77
2022/04/10 01:51:45;;;;;;;3.30;0.50;;;2.40;99.90;;;;;;5014697;28;20024;-80
2022/04/10 01:54:12;;;;;;;3.47;0.70;;;2.40;99.90;;;;;;5048867;28;20479;-80
2022/04/10 01:56:38;;;;;;;4.10;0.60;;;2.30;99.90;;;;;;5043060;28;20032;-76
2022/04/10 01:59:06;;;;;;;2.87;0.50;;;2.30;99.90;;;;;;5060311;28;20047;-76
2022/04/10 02:01:34;;;;;;;3.03;0.40;;;2.30;99.90;;;;;;5029640;28;20032;-76
2022/04/10 02:04:00;;;;;;;6.90;0.50;;;2.20;99.90;;;;;;5008959;28;20424;-76
2022/04/10 02:06:26;;;;;;;5.53;0.53;;;2.20;99.90;;;;;;5026750;28;20467;-76
2022/04/10 02:08:56;;;;;;;4.97;0.63;;;2.10;99.90;;;;;;5015200;28;20022;-81
2022/04/10 02:11:24;;;;;;;6.33;0.63;;;2.10;99.90;;;;;;5047961;28;20028;-80
2022/04/10 02:13:55;;;;;;;2.97;0.60;;;2.10;99.90;;;;;;5028792;28;20356;-80
2022/04/10 02:16:23;;;;;;;6.50;0.60;;;2.10;99.90;;;;;;5045115;28;20494;-80
2022/04/10 02:18:49;;;;;;;3.53;0.60;;;2.00;99.90;;;;;;5047799;28;20394;-80
2022/04/10 02:21:16;;;;;;;4.80;1.00;;;2.00;99.90;;;;;;5079212;28;20043;-81
2022/04/10 02:23:44;;;;;;;6.57;0.97;;;2.00;99.90;;;;;;5042176;28;20024;-80
2022/04/10 02:26:11;;;;;;;5.93;0.70;;;1.90;99.90;;;;;;5027787;28;20071;-80
2022/04/10 02:28:40;;;;;;;5.87;0.70;;;1.90;99.90;;;;;;5044034;28;20032;-80
2022/04/10 02:31:07;;;;;;;3.97;0.80;;;1.90;99.90;;;;;;5028749;28;20032;-80
2022/04/10 02:33:35;;;;;;;4.57;0.80;;;1.90;99.90;;;;;;5026972;28;20044;-80
2022/04/10 02:36:02;;;;;;;3.83;0.70;;;1.90;99.90;;;;;;5045993;28;20024;-80
2022/04/10 02:38:29;;;;;;;5.50;0.90;;;1.90;99.90;;;;;;5031142;28;20051;-80
2022/04/10 02:40:56;;;;;;;4.20;0.77;;;1.90;99.90;;;;;;5030957;28;20032;-80
2022/04/10 02:43:23;;;;;;;6.10;1.10;;;1.80;99.90;;;;;;5028992;28;20387;-80
2022/04/10 02:45:55;;;;;;;5.18;0.95;;;1.80;99.90;;;;;;5027827;28;20020;-76
2022/04/10 02:48:21;;;;;;;6.90;1.43;;;1.80;99.90;;;;;;5044600;28;20031;-76
2022/04/10 02:50:52;;;;;;;6.93;1.00;;;1.80;99.90;;;;;;5026695;28;20024;-76
2022/04/10 02:53:18;;;;;;;3.40;1.10;;;1.80;99.90;;;;;;5074435;28;20467;-76
2022/04/10 02:55:45;;;;;;;10.10;1.30;;;1.80;99.90;;;;;;5022697;28;20034;-76
2022/04/10 02:58:30;;;;;;;5.03;1.10;;;1.80;99.90;;;;;;5051182;28;20032;-76
2022/04/10 03:01:15;;;;;;;7.50;1.07;;;1.80;99.90;;;;;;5060735;28;20036;-76
2022/04/10 03:04:00;;;;;;;4.50;0.97;;;1.80;99.90;;;;;;5035123;28;20040;-76
2022/04/10 03:06:48;;;;;;;10.33;1.77;;;1.80;99.90;;;;;;5032615;28;20033;-76
2022/04/10 03:09:33;;;;;;;6.73;1.10;;;1.80;99.90;;;;;;5061220;28;20039;-76
2022/04/10 03:12:18;;;;;;;7.33;1.03;;;1.70;99.90;;;;;;5032548;28;20035;-76
2022/04/10 03:15:04;;;;;;;4.60;1.40;;;1.70;99.90;;;;;;5046715;28;20036;-76
2022/04/10 03:17:49;;;;;;;4.57;0.83;;;1.60;99.90;;;;;;5050495;28;20028;-76
2022/04/10 03:20:34;;;;;;;10.23;1.37;;;1.60;99.90;;;;;;5060818;28;20028;-76
2022/04/10 03:23:20;;;;;;;8.10;1.20;;;1.60;99.90;;;;;;5044859;28;20039;-76
2022/04/10 03:26:04;;;;;;;9.87;1.57;;;1.50;99.90;;;;;;5060873;28;20047;-79
2022/04/10 03:28:50;;;;;;;3.77;0.80;;;1.60;99.90;;;;;;5039241;28;20047;-80
2022/04/10 03:31:36;;;;;;;3.20;0.70;;;1.60;99.90;;;;;;5035290;28;20025;-80
2022/04/10 03:34:21;;;;;;;6.30;1.63;;;1.60;99.90;;;;;;5048383;28;20056;-78
2022/04/10 03:37:07;;;;;;;5.77;0.77;;;1.60;99.90;;;;;;5064445;28;20036;-79
2022/04/10 03:39:53;;;;;;;9.63;0.70;;;1.60;99.90;;;;;;5052182;28;20383;-79
2022/04/10 03:42:40;;;;;;;5.57;0.93;;;1.50;99.90;;;;;;5045813;28;20036;-79
2022/04/10 03:45:26;;;;;;;7.00;1.10;;;1.50;99.90;;;;;;5053796;28;20028;-79
2022/04/10 03:48:15;;;;;;;3.33;0.87;;;1.60;99.90;;;;;;5038404;28;20032;-79
2022/04/10 03:51:03;;;;;;;3.87;0.70;;;1.60;99.90;;;;;;5022929;28;20032;-76
2022/04/10 03:53:48;;;;;;;4.60;0.97;;;1.60;99.90;;;;;;5048880;28;20043;-79
2022/04/10 03:56:36;;;;;;;9.87;1.20;;;1.60;99.90;;;;;;5079661;28;20032;-79
2022/04/10 03:59:22;;;;;;;7.17;1.10;;;1.60;99.90;;;;;;5050688;28;21907;-79
2022/04/10 04:02:07;;;;;;;5.00;1.20;;;1.60;99.90;;;;;;5048314;28;20051;-79
2022/04/10 04:04:55;;;;;;;5.17;0.80;;;1.60;99.90;;;;;;5050150;28;20829;-79
2022/04/10 04:07:41;;;;;;;5.90;0.80;;;1.60;99.90;;;;;;5063274;28;20028;-79
2022/04/10 04:10:26;;;;;;;6.27;0.80;;;1.60;99.90;;;;;;5062877;28;20032;-79
2022/04/10 04:13:12;;;;;;;8.57;1.00;;;1.60;99.90;;;;;;5048817;28;20043;-79
2022/04/10 04:15:57;;;;;;;6.40;0.60;;;1.60;99.90;;;;;;5049026;28;20626;-79
2022/04/10 04:18:42;;;;;;;8.37;2.10;;;1.60;99.90;;;;;;5062995;28;21023;-79
2022/04/10 04:21:28;;;;;;;6.97;0.93;;;1.60;99.90;;;;;;5036604;28;20048;-79
2022/04/10 04:24:14;;;;;;;6.37;0.93;;;1.60;99.90;;;;;;5044987;28;20169;-79
2022/04/10 04:26:59;;;;;;;6.90;1.07;;;1.60;99.90;;;;;;5050011;28;20435;-79
2022/04/10 04:29:44;;;;;;;8.30;1.23;;;1.70;99.90;;;;;;5035613;28;20044;-79
2022/04/10 04:32:29;;;;;;;8.63;1.10;;;1.70;99.90;;;;;;5043903;28;20042;-79
2022/04/10 04:35:15;;;;;;;13.27;1.57;;;1.70;99.90;;;;;;5036065;28;20048;-79
2022/04/10 04:38:00;;;;;;;7.50;1.17;;;1.70;99.90;;;;;;5036426;28;20375;-79
2022/04/10 04:40:45;;;;;;;4.43;0.73;;;1.70;99.90;;;;;;5062719;28;20103;-79
2022/04/10 04:43:31;;;;;;;5.07;0.80;;;1.70;99.90;;;;;;5046939;28;20067;-79
2022/04/10 04:46:17;;;;;;;6.47;1.17;;;1.70;99.90;;;;;;5028501;28;20036;-76
2022/04/10 04:49:03;;;;;;;3.47;0.83;;;1.70;99.90;;;;;;5048412;28;20032;-76
2022/04/10 04:51:49;;;;;;;6.80;0.90;;;1.70;99.90;;;;;;5048098;28;20040;-77
2022/04/10 04:54:35;;;;;;;8.53;1.63;;;1.70;99.90;;;;;;5036914;28;20036;-76
2022/04/10 04:57:20;;;;;;;2.90;0.80;;;1.70;99.90;;;;;;5048876;28;20028;-76
2022/04/10 05:00:07;;;;;;;5.40;1.00;;;1.70;99.90;;;;;;5039934;28;20397;-76
2022/04/10 05:02:57;;;;;;;3.67;0.63;;;1.70;99.90;;;;;;5062124;28;20392;-76
2022/04/10 05:05:46;;;;;;;6.07;0.93;;;1.70;99.90;;;;;;5050946;28;20364;-76
2022/04/10 05:08:39;;;;;;;8.17;1.30;;;1.70;99.90;;;;;;5065981;28;20020;-76
2022/04/10 05:11:25;;;;;;;3.03;0.63;;;1.70;99.90;;;;;;5039767;28;20036;-76
2022/04/10 05:14:10;;;;;;;2.23;0.60;;;1.70;99.90;;;;;;5049671;28;20047;-76
2022/04/10 05:16:56;;;;;;;4.23;0.90;;;1.70;99.90;;;;;;5052340;28;20478;-76
2022/04/10 05:19:41;;;;;;;8.53;1.10;;;1.70;99.90;;;;;;5023632;28;20463;-76
2022/04/10 05:22:28;;;;;;;4.63;0.70;;;1.70;99.90;;;;;;5048788;28;20147;-76
2022/04/10 05:25:19;;;;;;;3.50;0.80;;;1.80;99.90;;;;;;5063077;28;23078;-76
2022/04/10 05:28:07;;;;;;;5.73;0.70;;;1.80;99.90;;;;;;5046815;28;20032;-76
2022/04/10 05:30:53;;;;;;;5.23;1.00;;;1.90;99.90;;;;;;5060945;28;20008;-76
2022/04/10 05:33:46;;;;;;;5.40;0.80;;;2.00;99.90;;;;;;5045462;28;20063;-76
2022/04/10 05:36:33;;;;;;;3.13;0.80;;;2.00;99.90;;;;;;5048802;28;20475;-76
2022/04/10 05:39:18;;;;;;;6.77;0.80;;;2.10;99.90;;;;;;5051761;28;20028;-76
2022/04/10 05:42:03;;;;;;;6.63;0.70;;;2.10;99.90;;;;;;5019447;28;20160;-76
2022/04/10 05:44:49;;;;;;;6.83;0.80;;;2.20;99.90;;;;;;5035793;28;20028;-76
2022/04/10 05:47:34;;;;;;;4.93;0.87;;;2.30;99.90;;;;;;5053393;28;20463;-76
2022/04/10 05:50:19;;;;;;;6.90;1.00;;;2.30;99.90;;;;;;5049597;28;20036;-76
2022/04/10 05:53:04;;;;;;;6.40;1.00;;;2.50;99.90;;;;;;5048067;28;20031;-77
2022/04/10 05:55:54;;;;;;;6.53;0.97;;;2.60;99.90;;;;;;5049836;28;20032;-76
2022/04/10 05:58:44;;;;;;;14.93;0.97;;;2.70;99.90;;;;;;5062918;28;20740;-76
2022/04/10 06:01:30;;;;;;;8.20;1.30;;;2.90;99.90;;;;;;5062087;28;20395;-76
2022/04/10 06:04:17;;;;;;;5.23;0.90;;;3.00;99.90;;;;;;5049089;28;20047;-76
2022/04/10 06:07:02;;;;;;;5.20;1.00;;;3.20;99.90;;;;;;5046413;28;20036;-76
2022/04/10 06:09:52;;;;;;;5.10;1.07;;;3.40;99.90;;;;;;5051209;28;20031;-76
2022/04/10 06:12:37;;;;;;;7.30;1.10;;;3.60;99.90;;;;;;5048897;28;20040;-76
2022/04/10 06:15:23;;;;;;;;;;;3.80;99.90;;;;;;5062073;28;20031;-76
2022/04/10 06:17:55;;;;;;;6.57;1.03;;;4.10;99.90;;;;;;5031434;28;19924;-76
2022/04/10 06:20:22;;;;;;;5.60;0.80;;;4.30;99.90;;;;;;5041088;28;20032;-76
2022/04/10 06:22:49;;;;;;;5.50;1.03;;;4.40;99.90;;;;;;5030648;28;20067;-76
2022/04/10 06:25:21;;;;;;;12.63;1.15;;;4.70;99.90;;;;;;5027451;28;20028;-76
2022/04/10 06:27:47;;;;;;;5.23;1.00;;;4.90;99.90;;;;;;5043344;28;20054;-75
2022/04/10 06:30:14;;;;;;;6.90;1.83;;;5.00;99.90;;;;;;5025425;28;20047;-75
2022/04/10 06:32:49;;;;;;;5.47;0.63;;;5.20;99.90;;;;;;5011634;28;20047;-75
2022/04/10 06:35:16;;;;;;;9.93;1.35;;;5.40;99.90;;;;;;5008531;28;20036;-76
2022/04/10 06:37:43;;;;;;;2.85;0.70;;;5.60;99.90;;;;;;5045387;28;20036;-76
2022/04/10 06:40:11;;;;;;;3.03;0.63;;;5.70;99.90;;;;;;5026513;28;21107;-76
2022/04/10 06:42:39;;;;;;;7.37;0.87;;;5.90;99.90;;;;;;5040310;28;20399;-76
2022/04/10 06:45:26;;;;;;;6.40;0.77;;;6.10;99.90;;;;;;5020078;28;20021;-75
2022/04/10 06:47:55;;;;;;;5.68;0.70;;;6.40;99.90;;;;;;5061541;28;20027;-75
2022/04/10 06:50:24;;;;;;;8.90;1.27;;;6.60;99.90;;;;;;5029659;28;20031;-76
2022/04/10 06:52:53;;;;;;;7.85;1.08;;;6.80;99.90;;;;;;5041839;28;20373;-76
2022/04/10 06:55:20;;;;;;;7.90;1.17;;;6.80;99.90;;;;;;5042687;28;20484;-76
2022/04/10 06:57:46;;;;;;;8.73;1.38;;;6.60;99.90;;;;;;5025546;28;20032;-76
2022/04/10 07:00:14;;;;;;;9.77;1.02;;;6.50;99.90;;;;;;5024614;28;20051;-76
2022/04/10 07:02:44;;;;;;;9.07;1.55;;;6.40;99.90;;;;;;5024633;28;20040;-75
2022/04/10 07:05:11;;;;;;;6.03;1.35;;;6.30;99.90;;;;;;5040320;28;20020;-75
2022/04/10 07:07:42;;;;;;;5.68;1.45;;;6.20;99.90;;;;;;5029727;28;20032;-75
2022/04/10 07:10:09;;;;;;;6.30;1.27;;;6.20;99.90;;;;;;5028620;28;20031;-75
2022/04/10 07:12:35;;;;;;;7.15;0.73;;;6.10;99.90;;;;;;5020420;28;20392;-75
2022/04/10 07:15:03;;;;;;;5.15;0.90;;;6.10;99.90;;;;;;5044046;28;20028;-75
2022/04/10 07:17:29;;;;;;;4.47;0.70;;;6.00;99.90;;;;;;5039500;28;20036;-76
2022/04/10 07:20:00;;;;;;;5.78;0.93;;;5.90;99.90;;;;;;4995614;28;20032;-75
2022/04/10 07:25:13;;;;;;;3.55;0.90;;;5.90;99.90;;;;;;5028033;28;20032;-76
2022/04/10 07:27:42;;;;;;;5.97;1.40;;;5.80;99.90;;;;;;5007475;28;20537;-74
2022/04/10 07:30:22;;;;;;;5.43;0.70;;;5.80;99.90;;;;;;5040275;28;20040;-77
2022/04/10 07:32:53;;;;;;;4.13;0.63;;;5.60;99.90;;;;;;4998201;28;20043;-74
2022/04/10 07:35:22;;;;;;;;;;;5.60;99.90;;;;;;5035101;28;20372;-74
2022/04/10 07:38:03;;;;;;;4.57;0.80;;;5.60;99.90;;;;;;5040171;28;19912;-75
2022/04/10 07:40:30;;;;;;;6.93;0.60;;;5.80;99.90;;;;;;5012835;28;20048;-75
2022/04/10 07:42:59;;;;;;;4.60;0.80;;;6.00;99.90;;;;;;4986902;28;20043;-75
2022/04/10 07:48:30;;;;;;;3.67;0.60;;;6.40;99.90;;;;;;4999720;28;20025;-76
2022/04/10 07:50:57;;;;;;;2.85;0.50;;;6.60;99.90;;;;;;5039627;28;20025;-76
2022/04/10 07:53:34;;;;;;;1.70;0.43;;;6.80;99.90;;;;;;5022588;28;20044;-76
2022/04/10 07:56:02;;;;;;;2.58;0.40;;;7.00;99.90;;;;;;5037536;28;20028;-76
2022/04/10 07:58:29;;;;;;;4.20;0.50;;;7.30;99.90;;;;;;5020960;28;20495;-76
2022/04/10 08:00:58;;;;;;;4.45;0.50;;;7.50;99.90;;;;;;5054572;28;20017;-76
2022/04/10 08:03:26;;;;;;;3.97;0.50;;;7.60;99.90;;;;;;5020899;28;20041;-76
2022/04/10 08:06:21;;;;;;;2.97;0.52;;;7.60;99.90;;;;;;5029362;28;20032;-75
2022/04/10 08:08:52;;;;;;;3.95;0.70;;;7.70;99.90;;;;;;5056059;28;20460;-76
2022/04/10 08:11:18;;;;;;;3.78;0.82;;;7.80;99.90;;;;;;5040628;28;20021;-76
2022/04/10 08:13:45;;;;;;;2.92;0.50;;;7.90;99.90;;;;;;5031752;28;20033;-75
2022/04/10 08:16:14;;;;;;;4.47;1.05;;;8.00;99.90;;;;;;5052128;28;20044;-75
2022/04/10 08:18:40;;;;;;;3.65;0.50;;;8.10;99.90;;;;;;5034471;28;20394;-75
2022/04/10 08:21:07;;;;;;;3.35;0.30;;;8.30;99.90;;;;;;5023539;28;20017;-74
2022/04/10 08:23:34;;;;;;;6.15;0.88;;;8.30;99.90;;;;;;5040046;28;20558;-75
2022/04/10 08:26:00;;;;;;;3.92;0.50;;;8.40;99.90;;;;;;5055709;28;20029;-75
2022/04/10 08:28:28;;;;;;;4.28;0.40;;;8.50;99.90;;;;;;5023058;28;20324;-75
2022/04/10 08:30:55;;;;;;;3.45;0.30;;;8.60;99.90;;;;;;5008559;28;20029;-77
2022/04/10 08:33:21;;;;;;;2.47;0.30;;;8.70;99.90;;;;;;5006413;28;20040;-77
2022/04/10 08:35:47;;;;;;;3.38;0.40;;;8.80;99.90;;;;;;5039510;28;20028;-78
2022/04/10 08:38:14;;;;;;;3.70;0.50;;;8.90;99.90;;;;;;5040476;28;20095;-78
2022/04/10 08:40:40;;;;;;;3.10;0.30;;;8.90;99.90;;;;;;5025999;28;20020;-79
2022/04/10 08:43:09;;;;;;;2.28;0.30;;;8.90;99.90;;;;;;5005791;28;20047;-79
2022/04/10 08:45:37;;;;;;;2.88;0.38;;;9.00;99.90;;;;;;5041066;28;20087;-78
2022/04/10 08:48:04;;;;;;;4.40;0.60;;;9.20;99.90;;;;;;5025705;28;20033;-78
2022/04/10 08:50:31;;;;;;;4.28;0.30;;;9.30;99.90;;;;;;5040604;28;20013;-78
2022/04/10 08:52:58;;;;;;;4.18;0.35;;;9.50;99.90;;;;;;5021431;28;20033;-78
2022/04/10 08:55:25;;;;;;;5.80;0.40;;;9.60;99.90;;;;;;5058049;28;20035;-78
2022/04/10 08:57:51;;;;;;;6.28;0.60;;;9.80;99.90;;;;;;5034556;28;20040;-78
2022/04/10 09:00:23;;;;;;;3.58;0.50;;;10.10;99.90;;;;;;5026187;28;21085;-78
2022/04/10 09:02:51;;;;;;;3.40;0.73;;;10.20;99.90;;;;;;5004253;28;20480;-78
2022/04/10 09:05:23;;;;;;;3.15;0.40;;;10.30;99.90;;;;;;5021688;28;20024;-78
2022/04/10 09:08:13;;;;;;;4.55;0.40;;;10.40;99.90;;;;;;5022821;28;20056;-78
2022/04/10 09:10:56;;;;;;;2.17;0.40;;;10.50;99.90;;;;;;4994728;28;20048;-78
2022/04/10 09:13:35;;;;;;;4.28;0.40;;;10.40;99.90;;;;;;5039365;28;20059;-78
2022/04/10 09:16:10;;;;;;;2.22;0.30;;;10.30;99.90;;;;;;5022811;28;20388;-78
2022/04/10 09:18:58;;;;;;;2.72;0.40;;;10.20;99.90;;;;;;5056673;28;20028;-78
2022/04/10 09:21:43;;;;;;;5.72;0.50;;;10.20;99.90;;;;;;5038893;28;20057;-78
2022/04/10 09:24:12;;;;;;;4.50;0.57;;;10.30;99.90;;;;;;5034813;28;20040;-78
2022/04/10 09:26:50;;;;;;;3.33;0.38;;;10.50;99.90;;;;;;5040728;28;20055;-78
2022/04/10 09:29:19;;;;;;;6.65;0.63;;;10.70;99.90;;;;;;5020676;28;20025;-78
2022/04/10 09:31:45;;;;;;;1.98;0.32;;;10.90;99.90;;;;;;5050659;28;20035;-78
2022/04/10 09:34:21;;;;;;;3.47;0.30;;;10.90;99.90;;;;;;5019447;28;20484;-79
2022/04/10 09:36:58;;;;;;;1.88;0.35;;;10.80;99.90;;;;;;5022685;28;20041;-78
2022/04/10 09:39:36;;;;;;;2.38;0.50;;;10.80;99.90;;;;;;5020753;28;20533;-79
2022/04/10 09:42:05;;;;;;;2.95;0.40;;;10.90;99.90;;;;;;5018577;28;20032;-79
2022/04/10 09:44:33;;;;;;;4.00;0.30;;;11.10;99.90;;;;;;5002773;28;20048;-78
2022/04/10 09:47:02;;;;;;;2.67;0.40;;;11.10;99.90;;;;;;5027870;28;20031;-77
2022/04/10 09:49:39;;;;;;;5.03;0.80;;;11.00;99.90;;;;;;5057548;28;20486;-77
2022/04/10 09:52:07;;;;;;;4.60;1.02;;;11.00;99.90;;;;;;5021828;28;20657;-79
2022/04/10 09:54:51;;;;;;;6.43;1.17;;;11.10;99.90;;;;;;5037033;28;20031;-79
2022/04/10 09:57:18;;;;;;;;;;;11.20;99.90;;;;;;5039147;28;20039;-76
2022/04/10 09:59:50;;;;;;;3.78;0.40;;;11.40;99.90;;;;;;5027255;28;20367;-80
2022/04/10 10:02:18;;;;;;;1.88;0.20;;;11.60;99.90;;;;;;5037997;28;20039;-78
2022/04/10 10:04:47;;;;;;;1.83;0.30;;;11.80;99.90;;;;;;5020705;28;20051;-78
2022/04/10 10:07:18;;;;;;;5.30;0.52;;;11.80;99.90;;;;;;5041017;28;20024;-76
2022/04/10 10:09:46;;;;;;;2.03;0.30;;;11.70;99.90;;;;;;5058832;28;20021;-77
2022/04/10 10:12:14;;;;;;;2.33;0.30;;;11.80;99.90;;;;;;5039084;28;21500;-79
2022/04/10 10:14:41;;;;;;;1.77;0.35;;;11.90;99.90;;;;;;5010079;28;20029;-78
2022/04/10 10:17:09;;;;;;;1.45;0.22;;;12.00;99.90;;;;;;5040595;28;20016;-78
2022/04/10 10:19:38;;;;;;;2.28;0.20;;;11.90;99.90;;;;;;5005879;28;20025;-78
2022/04/10 10:22:10;;;;;;;1.85;0.20;;;11.90;99.90;;;;;;5019767;28;20037;-78
2022/04/10 10:24:48;;;;;;;1.77;0.30;;;12.10;99.90;;;;;;5036451;28;20047;-77
2022/04/10 10:27:48;;;;;;;2.13;0.30;;;12.20;99.90;;;;;;5036809;28;20033;-78
2022/04/10 10:30:58;;;;;;;3.22;0.30;;;12.20;99.90;;;;;;5038001;28;20379;-78
2022/04/10 10:33:26;;;;;;;1.90;0.30;;;12.30;99.90;;;;;;5036301;28;20044;-78
2022/04/10 10:35:56;;;;;;;3.08;0.40;;;12.30;99.60;;;;;;5037130;28;20016;-76
2022/04/10 10:38:27;;;;;;;2.20;0.30;;;12.20;98.80;;;;;;5057423;28;20029;-76
2022/04/10 10:41:08;;;;;;;1.15;0.22;;;12.30;99.00;;;;;;5021451;28;20380;-76
2022/04/10 10:43:34;;;;;;;3.05;0.30;;;12.70;99.20;;;;;;5055352;28;20036;-76
2022/04/10 10:46:01;;;;;;;2.40;0.30;;;13.10;97.80;;;;;;5039275;28;20028;-77
2022/04/10 10:48:38;;;;;;;2.60;0.30;;;13.50;98.00;;;;;;4993590;28;20044;-77
2022/04/10 10:51:11;;;;;;;3.22;0.40;;;14.00;98.10;;;;;;5005855;28;20379;-76
2022/04/10 10:53:47;;;;;;;2.70;0.20;;;14.50;96.20;;;;;;5054479;28;20028;-77
2022/04/10 10:56:17;;;;;;;3.15;0.32;;;14.90;95.00;;;;;;5022558;28;20025;-77
2022/04/10 10:58:44;;;;;;;1.73;0.50;;;15.10;93.70;;;;;;5020443;28;20063;-77
2022/04/10 11:01:25;;;;;;;4.40;0.55;;;15.00;93.60;;;;;;5026800;28;20032;-77
2022/04/10 11:04:04;;;;;;;2.65;0.50;;;14.80;91.30;;;;;;5035367;28;20036;-77
2022/04/10 11:06:41;;;;;;;1.92;0.35;;;14.80;90.40;;;;;;5037964;28;20017;-78
2022/04/10 11:09:28;;;;;;;2.20;0.22;;;15.10;90.40;;;;;;5054092;28;20020;-77
2022/04/10 11:11:57;;;;;;;3.60;0.40;;;15.60;89.00;;;;;;5035474;28;20020;-77
2022/04/10 11:14:35;;;;;;;3.20;0.40;;;15.80;80.70;;;;;;5037893;28;20024;-76
2022/04/10 11:17:46;;;;;;;2.95;0.40;;;15.50;79.50;;;;;;5055933;28;20037;-76
2022/04/10 11:20:15;;;;;;;2.97;0.30;;;14.90;77.40;;;;;;5021960;28;20388;-76
2022/04/10 11:22:49;;;;;;;3.22;0.43;;;14.40;78.90;;;;;;5053572;28;20048;-76
2022/04/10 11:25:28;;;;;;;1.83;0.40;;;14.60;79.70;;;;;;5038201;28;20040;-76
2022/04/10 11:27:56;;;;;;;2.45;0.30;;;15.00;75.50;;;;;;5020902;28;20047;-76
2022/04/10 11:30:31;;;;;;;0.77;0.20;;;15.70;75.70;;;;;;5017257;28;20033;-76
2022/04/10 11:32:58;;;;;;;3.60;0.35;;;16.30;74.00;;;;;;5025954;28;21024;-75
2022/04/10 11:35:30;;;;;;;2.33;0.40;;;16.50;71.40;;;;;;4998692;28;20492;-76
2022/04/10 11:38:05;;;;;;;2.33;0.35;;;16.20;67.60;;;;;;5000731;28;20128;-76
2022/04/10 11:40:39;;;;;;;3.10;0.30;;;16.10;68.70;;;;;;5033348;28;20495;-78
2022/04/10 11:43:08;;;;;;;2.05;0.20;;;16.70;69.40;;;;;;4997793;28;20428;-76
2022/04/10 11:45:35;;;;;;;1.90;0.40;;;17.30;67.40;;;;;;4989604;28;20341;-76
2022/04/10 11:48:05;;;;;;;1.55;0.40;;;18.00;67.10;;;;;;5013449;28;20044;-76
2022/04/10 11:50:32;;;;;;;9.02;4.72;;;18.60;63.00;;;;;;5015176;28;20028;-76
2022/04/10 11:53:04;;;;;;;3.67;0.50;;;19.00;62.70;;;;;;5033294;28;20056;-76
2022/04/10 11:55:42;;;;;;;2.70;0.40;;;19.30;62.60;;;;;;5019092;28;20025;-75
2022/04/10 11:58:25;;;;;;;3.13;0.43;;;19.60;60.30;;;;;;5031297;28;20017;-77
2022/04/10 12:01:04;;;;;;;4.05;1.33;;;19.90;60.40;;;;;;5020632;28;20029;-77
2022/04/10 12:03:35;;;;;;;5.50;2.50;;;20.30;57.30;;;;;;5017334;28;20048;-76
2022/04/10 12:06:03;;;;;;;3.08;0.68;;;20.30;54.20;;;;;;5018426;28;20037;-77
2022/04/10 12:08:30;;;;;;;4.38;0.82;;;20.30;52.60;;;;;;5037946;28;20040;-76
2022/04/10 12:10:59;;;;;;;3.58;0.80;;;20.50;52.50;;;;;;4981687;28;20044;-76
2022/04/10 12:13:34;;;;;;;2.53;0.68;;;21.00;53.60;;;;;;5016862;28;20013;-77
2022/04/10 12:16:08;;;;;;;2.35;0.70;;;21.10;50.10;;;;;;5003550;28;20025;-76
2022/04/10 12:18:49;;;;;;;1.58;0.40;;;20.50;50.40;;;;;;5039336;28;20036;-77
2022/04/10 12:21:21;;;;;;;2.85;0.40;;;20.30;49.10;;;;;;4991367;28;20025;-75
2022/04/10 12:24:01;;;;;;;2.08;0.30;;;19.70;50.00;;;;;;5036972;28;20033;-78
2022/04/10 12:26:28;;;;;;;2.67;0.40;;;18.80;51.10;;;;;;5045667;28;20044;-76
2022/04/10 12:28:55;;;;;;;4.82;0.40;;;18.10;52.90;;;;;;5059970;28;20025;-76
2022/04/10 12:31:22;;;;;;;2.33;0.40;;;17.80;55.00;;;;;;5026026;28;20028;-77
2022/04/10 12:33:48;;;;;;;1.65;0.30;;;18.20;54.20;;;;;;5072032;28;21109;-76
2022/04/10 12:36:25;;;;;;;2.80;0.55;;;19.10;54.30;;;;;;5042051;28;20020;-75
2022/04/10 12:38:53;;;;;;;1.40;0.38;;;20.20;53.50;;;;;;5057023;28;20027;-76
2022/04/10 12:41:31;;;;;;;2.10;0.57;;;21.10;50.50;;;;;;5073009;28;20490;-75
2022/04/10 12:44:05;;;;;;;2.03;0.50;;;21.50;47.80;;;;;;5072407;28;20043;-76
2022/04/10 12:46:39;;;;;;;2.17;0.30;;;21.40;45.60;;;;;;5041321;28;21196;-76
2022/04/10 12:49:24;;;;;;;1.10;0.30;;;20.60;46.00;;;;;;5060442;28;20043;-75
2022/04/10 12:52:00;;;;;;;2.25;0.30;;;19.90;47.10;;;;;;5057905;28;20047;-75
2022/04/10 12:54:43;;;;;;;1.80;0.30;;;19.70;48.00;;;;;;5076212;28;20363;-74
2022/04/10 12:57:11;;;;;;;0.93;0.30;;;20.10;47.50;;;;;;5059992;28;20028;-75
2022/04/10 12:59:50;;;;;;;2.60;0.52;;;20.20;46.40;;;;;;5044062;28;20024;-75
2022/04/10 13:02:27;;;;;;;1.85;0.50;;;19.40;46.00;;;;;;5041453;28;20051;-75
2022/04/10 13:05:18;;;;;;;0.98;0.40;;;19.00;46.30;;;;;;5061798;28;20044;-76
2022/04/10 13:07:55;;;;;;;1.83;0.43;;;19.70;47.40;;;;;;5077659;28;20032;-75
2022/04/10 13:10:21;;;;;;;0.80;0.30;;;20.60;46.60;;;;;;5043791;28;20024;-76
2022/04/10 13:12:49;;;;;;;1.92;0.40;;;21.10;44.80;;;;;;5059713;28;20024;-76
2022/04/10 13:15:36;;;;;;;1.98;0.38;;;21.40;46.10;;;;;;5043940;28;20028;-76
2022/04/10 13:18:06;;;;;;;1.92;0.40;;;21.50;45.70;;;;;;5060393;28;20028;-75
2022/04/10 13:20:46;;;;;;;2.55;0.50;;;21.00;46.70;;;;;;5041569;28;20502;-76
2022/04/10 13:23:29;;;;;;;1.73;0.32;;;21.50;46.10;;;;;;5073700;28;20035;-76
2022/04/10 13:25:58;;;;;;;3.83;0.40;;;22.30;45.80;;;;;;5078145;28;20039;-76
2022/04/10 13:28:25;;;;;;;3.85;0.50;;;23.20;43.70;;;;;;5059632;28;20485;-75
2022/04/10 13:30:52;;;;;;;1.95;0.30;;;23.70;41.90;;;;;;5060094;28;20028;-76
2022/04/10 13:33:18;;;;;;;2.80;0.50;;;24.00;40.70;;;;;;5056046;28;20492;-76
2022/04/10 13:35:44;;;;;;;1.80;0.50;;;23.20;40.10;;;;;;5044584;28;20032;-76